Skip Navigation Links Skip Navigation Links

Current Weather

Ushuaia Aerodrome, Argentina

For information only: do not use for flight planning or navigation.
Latest weather
Observation time Monday, September 25, 2017 7:00 PM ART
Local time Monday, September 25, 2017 7:30 PM ART
Flight conditions Visual Meteorological Conditions
Winds
Wind direction Southwest (230°)
Wind speed 26 mph
Wind gusting to 34 mph
Visibility 6.2 mi.
Present weather drizzle
Sky condition
Ceiling 3,000 ft. broken clouds
Cloud layer broken clouds 3,000 ft.
Cloud layer broken clouds 4,000 ft.
Temperature 41°F
Dewpoint 36°F
Altimeter 29.71 in.Hg
Derived measurements
Relative humidity 81%
Wind chill 30°F
Density altitude -839 ft.
METAR SAWH 252200Z 23023G30KT 9999 DZ BKN030 BKN040 05/02 Q1006

Settings

Location code

InnerDrive.Weather 4.0.6144.1 Release CLR 4.0.30319.36366
Copyright ©2015 Inner Drive Technology. All rights reserved. Portions Copyright ©1986-2015 David Braverman.

Find weather

Site navigation


Skip Navigation Links

Place info

Page info

PayPal - The safer, easier way to pay online!

Return home.

Copyright ©2017 Inner Drive Technology. Purveyors of fine, hand-crafted computer software. Page printed 2017-09-25T22:30:02 UTC.